createdAt,value
2017-08-17T00:00:39.533Z,37.80
2017-08-17T00:03:07.019Z,25.60
2017-08-17T00:05:34.483Z,29.90
2017-08-17T00:08:01.963Z,29.27
2017-08-17T00:10:29.418Z,29.10
2017-08-17T00:12:56.900Z,21.37
2017-08-17T00:15:24.359Z,22.70
2017-08-17T00:17:51.847Z,32.10
2017-08-17T00:20:19.307Z,23.63
2017-08-17T00:22:46.770Z,32.03
2017-08-17T00:25:14.256Z,20.90
2017-08-17T00:27:41.728Z,24.63
2017-08-17T00:30:09.188Z,28.43
2017-08-17T00:32:36.663Z,25.60
2017-08-17T00:35:04.123Z,29.43
2017-08-17T00:37:31.583Z,24.20
2017-08-17T00:39:59.060Z,32.70
2017-08-17T00:42:26.526Z,31.87
2017-08-17T00:44:54.759Z,37.60
2017-08-17T00:47:22.238Z,40.90
2017-08-17T00:49:49.710Z,43.40
2017-08-17T00:52:17.268Z,37.73
2017-08-17T00:54:44.746Z,27.47
2017-08-17T00:57:12.979Z,37.10
2017-08-17T00:59:40.455Z,31.93
2017-08-17T01:02:07.911Z,34.60
2017-08-17T01:04:35.390Z,35.07
2017-08-17T01:07:03.636Z,35.80
2017-08-17T01:09:31.123Z,39.70
2017-08-17T01:11:58.575Z,33.00
2017-08-17T01:14:26.821Z,31.27
2017-08-17T01:16:54.282Z,33.53
2017-08-17T01:19:21.752Z,26.00
2017-08-17T01:21:49.214Z,27.13
2017-08-17T01:24:17.438Z,28.23
2017-08-17T01:26:44.914Z,33.33
2017-08-17T01:29:12.386Z,35.67
2017-08-17T01:31:39.847Z,31.60
2017-08-17T01:34:07.318Z,45.80
2017-08-17T01:36:35.569Z,40.70
2017-08-17T01:39:03.036Z,36.33
2017-08-17T01:41:30.499Z,44.50
2017-08-17T01:43:57.980Z,37.03
2017-08-17T01:46:25.430Z,35.60
2017-08-17T01:48:52.910Z,38.37
2017-08-17T01:51:20.367Z,38.23
2017-08-17T01:53:47.846Z,34.37
2017-08-17T01:56:15.307Z,35.53
2017-08-17T01:58:42.791Z,40.87
2017-08-17T02:01:10.280Z,43.23
2017-08-17T02:03:37.731Z,35.43
2017-08-17T02:06:05.211Z,34.73
2017-08-17T02:08:32.671Z,36.50
2017-08-17T02:11:00.134Z,38.43
2017-08-17T02:13:27.614Z,44.30
2017-08-17T02:15:55.080Z,36.20
2017-08-17T02:18:22.555Z,35.43
2017-08-17T02:20:50.779Z,43.60
2017-08-17T02:23:18.255Z,40.23
2017-08-17T02:25:45.715Z,38.30
2017-08-17T02:28:13.195Z,40.90
2017-08-17T02:30:41.414Z,40.93
2017-08-17T02:33:08.898Z,38.40
2017-08-17T02:35:36.360Z,39.37
2017-08-17T02:38:03.818Z,42.87
2017-08-17T02:40:31.301Z,39.10
2017-08-17T02:42:58.789Z,39.60
2017-08-17T02:45:26.270Z,37.87
2017-08-17T02:47:53.733Z,38.30
2017-08-17T02:50:21.214Z,43.23
2017-08-17T02:52:48.682Z,33.67
2017-08-17T02:55:16.917Z,35.00
2017-08-17T02:57:44.379Z,50.23
2017-08-17T03:00:11.851Z,50.33
2017-08-17T03:02:39.326Z,51.70
2017-08-17T03:05:07.546Z,53.00
2017-08-17T03:07:35.011Z,60.40
2017-08-17T03:10:02.495Z,60.90
2017-08-17T03:12:29.963Z,50.43
2017-08-17T03:14:58.206Z,58.50
2017-08-17T03:17:25.664Z,50.03
2017-08-17T03:19:53.123Z,49.37
2017-08-17T03:22:20.599Z,47.13
2017-08-17T03:24:48.078Z,54.60
2017-08-17T03:27:16.315Z,54.60
2017-08-17T03:29:43.782Z,65.63
2017-08-17T03:32:11.240Z,62.07
2017-08-17T03:34:38.718Z,53.10
2017-08-17T03:37:06.963Z,60.27
2017-08-17T03:39:34.459Z,50.63
2017-08-17T03:42:01.921Z,47.70
2017-08-17T03:44:29.400Z,46.20
2017-08-17T03:46:56.874Z,49.70
2017-08-17T03:49:24.340Z,50.90
2017-08-17T03:51:51.811Z,48.60
2017-08-17T03:54:19.275Z,54.40
2017-08-17T03:56:46.763Z,56.97
2017-08-17T03:59:14.234Z,53.17
2017-08-17T04:01:41.698Z,58.97
2017-08-17T04:04:09.175Z,54.93
2017-08-17T04:06:36.635Z,49.97
2017-08-17T04:09:04.107Z,65.40
2017-08-17T04:11:31.567Z,58.13
2017-08-17T04:13:59.046Z,57.40
2017-08-17T04:16:27.271Z,55.43
2017-08-17T04:18:54.740Z,61.03
2017-08-17T04:21:22.219Z,57.73
2017-08-17T04:23:50.447Z,49.97
2017-08-17T04:26:17.919Z,45.83
2017-08-17T04:28:45.390Z,44.87
2017-08-17T04:31:12.847Z,43.90
2017-08-17T04:33:40.342Z,42.67
2017-08-17T04:36:08.558Z,59.97
2017-08-17T04:38:36.039Z,55.97
2017-08-17T04:41:03.494Z,49.17
2017-08-17T04:43:30.986Z,47.93
2017-08-17T04:45:58.468Z,45.23
2017-08-17T04:48:25.928Z,42.10
2017-08-17T04:50:53.403Z,40.93
2017-08-17T04:53:20.878Z,39.00
2017-08-17T04:55:48.346Z,48.83
2017-08-17T04:58:34.391Z,49.07
2017-08-17T05:01:01.867Z,38.87
2017-08-17T05:03:29.327Z,38.33
2017-08-17T05:05:56.799Z,39.20
2017-08-17T05:08:24.291Z,42.40
2017-08-17T05:10:51.765Z,39.40
2017-08-17T05:13:19.226Z,37.83
2017-08-17T05:15:46.702Z,33.30
2017-08-17T05:18:14.162Z,40.50
2017-08-17T05:20:41.623Z,30.80
2017-08-17T05:23:09.097Z,30.13
2017-08-17T05:25:36.555Z,33.03
2017-08-17T05:28:04.032Z,30.53
2017-08-17T05:30:32.267Z,36.40
2017-08-17T05:32:59.723Z,33.77
2017-08-17T05:35:27.215Z,37.43
2017-08-17T05:37:55.460Z,31.67
2017-08-17T05:40:22.918Z,34.60
2017-08-17T05:42:50.395Z,40.50
2017-08-17T05:45:18.642Z,36.00
2017-08-17T05:47:46.122Z,33.80
2017-08-17T05:50:13.590Z,31.90
2017-08-17T05:52:41.828Z,37.83
2017-08-17T05:55:09.286Z,35.73
2017-08-17T05:57:36.775Z,37.07
2017-08-17T06:00:04.997Z,32.00
2017-08-17T06:02:32.470Z,31.43
2017-08-17T06:04:59.931Z,34.20
2017-08-17T06:07:27.403Z,44.63
2017-08-17T06:09:54.875Z,36.60
2017-08-17T06:12:23.103Z,35.53
2017-08-17T06:14:50.579Z,32.50
2017-08-17T06:17:18.039Z,35.50
2017-08-17T06:19:45.518Z,29.07
2017-08-17T06:22:13.762Z,30.90
2017-08-17T06:24:41.227Z,32.23
2017-08-17T06:27:08.690Z,26.77
2017-08-17T06:29:36.183Z,32.23
2017-08-17T06:32:03.656Z,33.23
2017-08-17T06:34:31.118Z,26.13
2017-08-17T06:36:58.583Z,31.73
2017-08-17T06:39:26.070Z,25.23
2017-08-17T06:41:53.518Z,34.03
2017-08-17T06:44:20.991Z,22.13
2017-08-17T06:46:48.466Z,25.70
2017-08-17T06:49:15.944Z,35.83
2017-08-17T06:51:43.423Z,26.43
2017-08-17T06:54:10.882Z,24.70
2017-08-17T06:56:38.362Z,29.13
2017-08-17T06:59:05.830Z,21.30
2017-08-17T07:01:33.287Z,23.47
2017-08-17T07:04:01.541Z,26.43
2017-08-17T07:06:28.991Z,23.00
2017-08-17T07:08:56.456Z,21.43
2017-08-17T07:11:23.927Z,22.23
2017-08-17T07:13:51.408Z,26.53
2017-08-17T07:16:19.635Z,23.33
2017-08-17T07:18:47.115Z,20.57
2017-08-17T07:21:14.582Z,24.30
2017-08-17T07:23:42.820Z,21.53
2017-08-17T07:26:10.280Z,23.93
2017-08-17T07:28:37.760Z,21.53
2017-08-17T07:31:05.247Z,20.30
2017-08-17T07:33:32.735Z,31.93
2017-08-17T07:36:00.207Z,16.50
2017-08-17T07:38:27.679Z,16.53
2017-08-17T07:40:55.152Z,15.50
2017-08-17T07:43:23.386Z,19.07
2017-08-17T07:45:50.851Z,18.47
2017-08-17T07:48:18.327Z,20.67
2017-08-17T07:50:45.941Z,15.30
2017-08-17T07:53:13.403Z,18.70
2017-08-17T07:55:40.895Z,17.00
2017-08-17T07:58:08.360Z,16.47
2017-08-17T08:00:35.838Z,14.73
2017-08-17T08:03:04.066Z,12.87
2017-08-17T08:05:31.550Z,18.57
2017-08-17T08:07:59.015Z,13.60
2017-08-17T08:10:27.260Z,16.30
2017-08-17T08:12:54.727Z,15.07
2017-08-17T08:15:22.203Z,17.63
2017-08-17T08:17:50.441Z,18.57
2017-08-17T08:20:17.900Z,13.20
2017-08-17T08:22:45.372Z,11.90
2017-08-17T08:25:12.839Z,13.93
2017-08-17T08:27:40.322Z,15.77
2017-08-17T08:30:07.778Z,13.87
2017-08-17T08:32:35.259Z,16.43
2017-08-17T08:35:02.742Z,12.40
2017-08-17T08:37:31.439Z,15.17
2017-08-17T08:39:58.898Z,15.73
2017-08-17T08:42:26.370Z,11.10
2017-08-17T08:44:54.611Z,10.07
2017-08-17T08:47:22.103Z,11.20
2017-08-17T08:49:50.358Z,10.63
2017-08-17T08:52:17.831Z,12.90
2017-08-17T08:54:46.069Z,10.47
2017-08-17T08:57:13.524Z,15.43
2017-08-17T08:59:40.999Z,11.63
2017-08-17T09:02:08.459Z,7.30
2017-08-17T09:04:35.930Z,10.67
2017-08-17T09:07:04.163Z,11.23
2017-08-17T09:09:31.630Z,8.07
2017-08-17T09:11:59.091Z,13.87
2017-08-17T09:14:26.563Z,9.40
2017-08-17T09:16:54.035Z,8.10
2017-08-17T09:19:22.249Z,16.43
2017-08-17T09:21:49.725Z,12.33
2017-08-17T09:24:17.178Z,7.60
2017-08-17T09:26:44.643Z,9.57
2017-08-17T09:29:12.115Z,8.57
2017-08-17T09:31:39.575Z,8.30
2017-08-17T09:34:07.038Z,10.70
2017-08-17T09:36:34.510Z,10.20
2017-08-17T09:39:02.762Z,11.00
2017-08-17T09:41:30.235Z,7.33
2017-08-17T09:43:58.452Z,12.43
2017-08-17T09:46:25.939Z,9.17
2017-08-17T09:48:53.384Z,8.47
2017-08-17T09:51:20.834Z,9.50
2017-08-17T09:53:48.323Z,8.67
2017-08-17T09:56:15.770Z,8.83
2017-08-17T09:58:43.234Z,11.63
2017-08-17T10:01:10.710Z,11.83
2017-08-17T10:03:38.939Z,11.17
2017-08-17T10:06:06.415Z,8.30
2017-08-17T10:08:33.870Z,9.87
2017-08-17T10:11:01.343Z,8.60
2017-08-17T10:13:29.559Z,9.03
2017-08-17T10:15:57.023Z,7.67
2017-08-17T10:18:24.507Z,30.00
2017-08-17T10:20:51.976Z,4.60
2017-08-17T10:23:19.447Z,5.73
2017-08-17T10:25:47.667Z,6.17
2017-08-17T10:28:15.219Z,5.30
2017-08-17T10:30:42.665Z,4.67
2017-08-17T10:33:10.143Z,5.77
2017-08-17T10:35:37.598Z,9.30
2017-08-17T10:38:05.067Z,4.93
2017-08-17T10:40:32.535Z,4.03
2017-08-17T10:43:00.003Z,4.77
2017-08-17T10:45:27.459Z,5.27
2017-08-17T10:47:54.912Z,8.37
2017-08-17T10:50:22.383Z,4.77
2017-08-17T10:52:50.607Z,4.27
2017-08-17T10:55:19.886Z,4.63
2017-08-17T10:57:47.346Z,4.27
2017-08-17T11:00:14.816Z,6.70
2017-08-17T11:02:42.285Z,3.43
2017-08-17T11:05:09.750Z,5.80
2017-08-17T11:07:37.218Z,5.50
2017-08-17T11:10:04.679Z,5.63
2017-08-17T11:12:32.147Z,5.40
2017-08-17T11:15:00.383Z,9.53
2017-08-17T11:17:27.863Z,5.03
2017-08-17T11:19:55.323Z,5.93
2017-08-17T11:22:22.775Z,5.23
2017-08-17T11:24:50.275Z,2.37
2017-08-17T11:27:17.724Z,3.50
2017-08-17T11:29:45.951Z,3.93
2017-08-17T11:32:13.427Z,2.93
2017-08-17T11:34:40.900Z,2.57
2017-08-17T11:37:09.122Z,5.60
2017-08-17T11:39:36.607Z,4.13
2017-08-17T11:42:31.910Z,3.80
2017-08-17T11:44:59.383Z,6.30
2017-08-17T11:47:26.834Z,4.70
2017-08-17T11:49:54.308Z,3.43
2017-08-17T11:52:21.786Z,3.53
2017-08-17T11:54:49.258Z,5.93
2017-08-17T11:57:16.719Z,3.20
2017-08-17T11:59:44.197Z,6.20
2017-08-17T12:02:11.643Z,9.50
2017-08-17T12:04:39.111Z,6.03
2017-08-17T12:07:06.582Z,3.80
2017-08-17T12:09:34.039Z,2.40
2017-08-17T12:12:01.520Z,2.20
2017-08-17T12:14:29.740Z,2.53
2017-08-17T12:16:57.219Z,2.27
2017-08-17T12:19:24.683Z,2.50
2017-08-17T12:21:52.162Z,1.87
2017-08-17T12:24:20.384Z,2.40
2017-08-17T12:26:47.871Z,4.93
2017-08-17T12:29:15.323Z,3.73
2017-08-17T12:31:42.796Z,5.83
2017-08-17T12:34:10.251Z,2.50
2017-08-17T12:36:37.710Z,3.97
2017-08-17T12:39:05.191Z,2.40
2017-08-17T12:41:32.656Z,3.60
2017-08-17T12:44:00.120Z,6.10
2017-08-17T12:46:27.574Z,7.30
2017-08-17T12:48:55.052Z,6.73
2017-08-17T12:51:22.519Z,8.27
2017-08-17T12:53:50.003Z,4.07
2017-08-17T12:56:17.470Z,6.73
2017-08-17T12:58:44.941Z,8.83
2017-08-17T13:01:12.418Z,8.03
2017-08-17T13:03:39.875Z,7.40
2017-08-17T13:06:07.355Z,7.80
2017-08-17T13:08:34.823Z,6.53
2017-08-17T13:11:02.278Z,4.30
2017-08-17T13:13:29.750Z,5.27
2017-08-17T13:15:57.216Z,5.50
2017-08-17T13:18:25.462Z,3.50
2017-08-17T13:20:52.926Z,6.60
2017-08-17T13:23:20.390Z,4.23
2017-08-17T13:25:47.866Z,4.47
2017-08-17T13:28:16.089Z,7.03
2017-08-17T13:30:43.558Z,6.67
2017-08-17T13:33:11.015Z,6.70
2017-08-17T13:35:38.548Z,3.50
2017-08-17T13:38:05.991Z,4.03
2017-08-17T13:40:33.463Z,5.10
2017-08-17T13:43:01.018Z,4.73
2017-08-17T13:45:28.463Z,4.00
2017-08-17T13:47:55.943Z,3.27
2017-08-17T13:50:23.410Z,5.40
2017-08-17T13:52:50.886Z,11.43
2017-08-17T13:55:18.354Z,6.30
2017-08-17T13:57:45.830Z,5.03
2017-08-17T14:00:14.068Z,5.77
2017-08-17T14:02:41.519Z,8.00
2017-08-17T14:05:08.991Z,5.30
2017-08-17T14:07:36.459Z,4.73
2017-08-17T14:10:04.715Z,3.60
2017-08-17T14:12:32.166Z,6.97
2017-08-17T14:14:59.640Z,7.20
2017-08-17T14:17:27.099Z,7.57
2017-08-17T14:19:54.609Z,7.43
2017-08-17T14:22:22.063Z,5.53
2017-08-17T14:24:49.617Z,6.70
2017-08-17T14:27:17.076Z,5.83
2017-08-17T14:29:44.534Z,4.40
2017-08-17T14:32:12.016Z,4.03
2017-08-17T14:34:39.504Z,4.13
2017-08-17T14:37:07.738Z,5.20
2017-08-17T14:39:35.206Z,7.67
2017-08-17T14:42:02.671Z,4.90
2017-08-17T14:44:30.138Z,4.97
2017-08-17T14:46:57.607Z,7.30
2017-08-17T14:49:25.827Z,6.53
2017-08-17T14:51:53.294Z,3.60
2017-08-17T14:54:20.749Z,4.10
2017-08-17T14:56:48.223Z,5.37
2017-08-17T14:59:15.671Z,5.20
2017-08-17T15:01:43.146Z,3.73
2017-08-17T15:04:10.606Z,4.00
2017-08-17T15:06:38.071Z,4.97
2017-08-17T15:09:06.327Z,4.40
2017-08-17T15:11:33.771Z,6.80
2017-08-17T15:14:01.248Z,5.03
2017-08-17T15:16:28.724Z,6.63
2017-08-17T15:18:56.202Z,4.00
2017-08-17T15:21:23.672Z,6.40
2017-08-17T15:23:51.174Z,4.90
2017-08-17T15:26:18.642Z,3.97
2017-08-17T15:28:46.871Z,3.53
2017-08-17T15:31:14.347Z,4.40
2017-08-17T15:33:41.803Z,7.80
2017-08-17T15:36:09.267Z,7.30
2017-08-17T15:38:36.722Z,7.63
2017-08-17T15:41:04.186Z,4.80
2017-08-17T15:43:31.654Z,5.37
2017-08-17T15:45:59.879Z,8.90
2017-08-17T15:48:27.351Z,6.93
2017-08-17T15:50:54.823Z,6.67
2017-08-17T15:53:22.275Z,9.33
2017-08-17T15:55:49.750Z,5.40
2017-08-17T15:58:17.970Z,7.00
2017-08-17T16:00:45.458Z,6.60
2017-08-17T16:03:12.931Z,4.40
2017-08-17T16:05:41.179Z,6.00
2017-08-17T16:08:08.652Z,6.30
2017-08-17T16:10:36.123Z,3.93
2017-08-17T16:13:03.586Z,4.57
2017-08-17T16:15:31.819Z,4.80
2017-08-17T16:17:59.272Z,3.87
2017-08-17T16:20:26.734Z,6.47
2017-08-17T16:22:54.202Z,4.10
2017-08-17T16:27:46.617Z,4.53
2017-08-17T16:30:14.066Z,4.10
2017-08-17T16:32:41.559Z,4.57
2017-08-17T16:35:09.024Z,3.50
2017-08-17T16:37:36.495Z,4.23
2017-08-17T16:40:03.958Z,3.77
2017-08-17T16:42:31.407Z,5.30
2017-08-17T16:44:58.890Z,5.93
2017-08-17T16:47:27.110Z,6.10
2017-08-17T16:49:54.579Z,8.33
2017-08-17T16:52:22.047Z,4.07
2017-08-17T16:54:49.508Z,4.03
2017-08-17T16:57:16.974Z,4.13
2017-08-17T16:59:45.214Z,5.57
2017-08-17T17:02:12.701Z,4.17
2017-08-17T17:04:40.150Z,3.73
2017-08-17T17:07:07.610Z,3.33
2017-08-17T17:09:35.083Z,3.30
2017-08-17T17:12:03.320Z,3.57
2017-08-17T17:14:30.779Z,3.37
2017-08-17T17:16:58.273Z,3.00
2017-08-17T17:19:26.507Z,3.07
2017-08-17T17:21:53.971Z,3.10
2017-08-17T17:24:21.450Z,6.00
2017-08-17T17:26:49.670Z,2.83
2017-08-17T17:29:17.134Z,2.40
2017-08-17T17:31:44.613Z,5.73
2017-08-17T17:34:12.083Z,3.43
2017-08-17T17:36:39.575Z,5.97
2017-08-17T17:39:07.026Z,3.13
2017-08-17T17:41:34.499Z,2.93
2017-08-17T17:44:01.964Z,2.97
2017-08-17T17:46:29.430Z,2.47
2017-08-17T17:48:56.904Z,2.73
2017-08-17T17:51:24.361Z,2.27
2017-08-17T17:53:51.835Z,2.60
2017-08-17T17:56:19.298Z,2.57
2017-08-17T17:58:46.797Z,7.40
2017-08-17T18:01:14.271Z,3.00
2017-08-17T18:03:41.743Z,3.00
2017-08-17T18:06:09.222Z,3.40
2017-08-17T18:08:36.671Z,3.07
2017-08-17T18:11:04.157Z,3.87
2017-08-17T18:13:32.637Z,3.00
2017-08-17T18:16:00.961Z,2.50
2017-08-17T18:18:28.423Z,2.70
2017-08-17T18:20:55.902Z,6.93
2017-08-17T18:23:23.363Z,3.37
2017-08-17T18:25:50.839Z,5.57
2017-08-17T18:28:19.077Z,3.50
2017-08-17T18:30:46.540Z,2.37
2017-08-17T18:33:14.061Z,2.87
2017-08-17T18:35:41.541Z,3.37
2017-08-17T18:38:09.000Z,2.73
2017-08-17T18:40:36.470Z,3.37
2017-08-17T18:43:03.941Z,2.77
2017-08-17T18:45:31.415Z,3.40
2017-08-17T18:47:59.639Z,4.40
2017-08-17T18:50:27.106Z,2.70
2017-08-17T18:52:54.572Z,3.07
2017-08-17T18:55:22.040Z,2.97
2017-08-17T18:57:50.276Z,2.83
2017-08-17T19:00:17.739Z,3.30
2017-08-17T19:02:45.208Z,2.70
2017-08-17T19:05:12.676Z,2.50
2017-08-17T19:07:40.154Z,2.30
2017-08-17T19:10:08.403Z,2.53
2017-08-17T19:12:35.880Z,2.60
2017-08-17T19:15:04.127Z,2.73
2017-08-17T19:17:31.580Z,3.10
2017-08-17T19:19:59.052Z,16.13
2017-08-17T19:22:26.509Z,3.47
2017-08-17T19:24:53.987Z,3.03
2017-08-17T19:27:22.210Z,3.10
2017-08-17T19:29:49.676Z,3.33
2017-08-17T19:32:17.149Z,3.93
2017-08-17T19:34:44.612Z,2.90
2017-08-17T19:37:12.088Z,3.07
2017-08-17T19:39:40.307Z,4.60
2017-08-17T19:42:07.764Z,3.20
2017-08-17T19:44:35.231Z,5.70
2017-08-17T19:47:02.687Z,3.57
2017-08-17T19:49:30.175Z,3.70
2017-08-17T19:51:58.439Z,3.10
2017-08-17T19:54:25.931Z,3.40
2017-08-17T19:56:54.150Z,4.40
2017-08-17T19:59:21.635Z,3.80
2017-08-17T20:01:49.083Z,3.07
2017-08-17T20:04:16.550Z,3.40
2017-08-17T20:06:44.779Z,3.13
2017-08-17T20:09:12.231Z,3.47
2017-08-17T20:11:39.698Z,3.20
2017-08-17T20:14:07.175Z,4.30
2017-08-17T20:16:34.659Z,4.60
2017-08-17T20:19:02.118Z,3.63
2017-08-17T20:21:30.339Z,3.10
2017-08-17T20:23:57.802Z,3.87
2017-08-17T20:26:25.251Z,3.60
2017-08-17T20:28:52.720Z,3.50
2017-08-17T20:31:20.195Z,3.27
2017-08-17T20:33:47.670Z,4.70
2017-08-17T20:36:15.895Z,3.77
2017-08-17T20:38:43.351Z,4.77
2017-08-17T20:41:10.818Z,3.70
2017-08-17T20:43:38.287Z,3.53
2017-08-17T20:46:05.766Z,3.80
2017-08-17T20:48:33.995Z,3.23
2017-08-17T20:51:01.452Z,3.50
2017-08-17T20:53:28.947Z,3.33
2017-08-17T20:55:56.399Z,4.83
2017-08-17T20:58:23.851Z,3.13
2017-08-17T21:00:51.323Z,3.83
2017-08-17T21:03:19.556Z,3.90
2017-08-17T21:05:47.036Z,7.90
2017-08-17T21:08:14.503Z,3.83
2017-08-17T21:10:41.975Z,4.07
2017-08-17T21:13:10.196Z,4.53
2017-08-17T21:15:37.675Z,4.70
2017-08-17T21:18:05.133Z,4.30
2017-08-17T21:20:32.621Z,3.97
2017-08-17T21:23:00.855Z,3.57
2017-08-17T21:25:28.310Z,3.13
2017-08-17T21:27:55.788Z,4.00
2017-08-17T21:30:23.257Z,3.63
2017-08-17T21:32:51.504Z,3.70
2017-08-17T21:35:18.989Z,3.90
2017-08-17T21:37:47.219Z,3.13
2017-08-17T21:40:14.683Z,3.83
2017-08-17T21:42:42.143Z,5.70
2017-08-17T21:45:09.618Z,6.00
2017-08-17T21:47:37.126Z,4.40
2017-08-17T21:50:04.581Z,5.60
2017-08-17T21:52:32.059Z,7.40
2017-08-17T21:54:59.526Z,4.23
2017-08-17T21:57:26.984Z,4.50
2017-08-17T21:59:54.459Z,4.47
2017-08-17T22:02:21.923Z,5.40
2017-08-17T22:04:50.162Z,4.60
2017-08-17T22:07:17.639Z,5.10
2017-08-17T22:09:45.102Z,4.53
2017-08-17T22:12:12.578Z,5.20
2017-08-17T22:14:40.816Z,5.00
2017-08-17T22:17:08.283Z,5.20
2017-08-17T22:19:35.771Z,7.10
2017-08-17T22:22:04.013Z,5.43
2017-08-17T22:24:31.484Z,5.30
2017-08-17T22:26:59.715Z,6.13
2017-08-17T22:29:27.174Z,7.03
2017-08-17T22:31:54.625Z,5.30
2017-08-17T22:34:22.103Z,5.30
2017-08-17T22:36:49.567Z,5.30
2017-08-17T22:39:17.032Z,5.13
2017-08-17T22:41:44.515Z,13.13
2017-08-17T22:44:12.735Z,4.97
2017-08-17T22:46:40.198Z,5.70
2017-08-17T22:49:07.667Z,6.17
2017-08-17T22:51:35.135Z,6.63
2017-08-17T22:54:02.606Z,6.20
2017-08-17T22:56:30.853Z,5.53
2017-08-17T22:58:58.310Z,6.73
2017-08-17T23:01:25.783Z,6.70
2017-08-17T23:03:53.251Z,9.40
2017-08-17T23:06:21.504Z,6.10
2017-08-17T23:08:48.970Z,6.43
2017-08-17T23:11:17.194Z,9.30
2017-08-17T23:13:45.388Z,6.77
2017-08-17T23:16:12.838Z,7.87
2017-08-17T23:18:40.320Z,7.10
2017-08-17T23:21:07.799Z,7.10
2017-08-17T23:23:36.031Z,7.70
2017-08-17T23:26:03.499Z,7.17
2017-08-17T23:28:30.981Z,6.83
2017-08-17T23:30:59.208Z,8.13
2017-08-17T23:33:26.691Z,7.87
2017-08-17T23:35:54.161Z,8.63
2017-08-17T23:38:21.622Z,7.20
2017-08-17T23:40:49.099Z,6.70
2017-08-17T23:43:16.550Z,7.13
2017-08-17T23:45:44.774Z,7.13
2017-08-17T23:48:12.258Z,9.23
2017-08-17T23:50:39.722Z,6.77
2017-08-17T23:53:07.962Z,9.37
2017-08-17T23:55:35.419Z,7.77
2017-08-17T23:58:02.895Z,7.43
